createdAt,value
2022-12-19T00:01:36.206Z,18.55
2022-12-19T00:06:34.877Z,18.73
2022-12-19T00:09:01.658Z,20.55
2022-12-19T00:11:29.614Z,18.85
2022-12-19T00:13:57.079Z,20.60
2022-12-19T00:16:26.049Z,19.58
2022-12-19T00:18:55.518Z,19.20
2022-12-19T00:21:24.978Z,19.05
2022-12-19T00:23:52.245Z,19.80
2022-12-19T00:26:25.008Z,19.83
2022-12-19T00:29:00.507Z,20.38
2022-12-19T00:31:29.696Z,19.25
2022-12-19T00:33:57.149Z,21.10
2022-12-19T00:36:26.926Z,19.38
2022-12-19T00:38:55.578Z,17.60
2022-12-19T00:41:34.266Z,21.45
2022-12-19T00:44:03.680Z,19.70
2022-12-19T00:46:34.178Z,20.05
2022-12-19T00:49:01.453Z,22.13
2022-12-19T00:51:33.288Z,20.83
2022-12-19T00:54:00.023Z,19.05
2022-12-19T00:56:33.465Z,19.67
2022-12-19T00:59:06.251Z,19.95
2022-12-19T01:01:36.275Z,19.55
2022-12-19T01:04:27.599Z,20.10
2022-12-19T01:06:52.583Z,20.20
2022-12-19T01:09:21.589Z,21.48
2022-12-19T01:12:07.958Z,19.92
2022-12-19T01:14:35.105Z,21.83
2022-12-19T01:17:01.787Z,19.73
2022-12-19T01:19:28.457Z,19.98
2022-12-19T01:21:55.162Z,21.38
2022-12-19T01:24:22.241Z,21.98
2022-12-19T01:26:49.479Z,20.27
2022-12-19T01:29:16.390Z,19.55
2022-12-19T01:31:43.419Z,21.55
2022-12-19T01:34:10.413Z,21.42
2022-12-19T01:36:39.615Z,22.08
2022-12-19T01:39:07.400Z,21.80
2022-12-19T01:41:34.196Z,20.42
2022-12-19T01:44:06.496Z,19.90
2022-12-19T01:46:41.480Z,21.45
2022-12-19T01:49:20.957Z,20.73
2022-12-19T01:51:54.784Z,20.02
2022-12-19T01:54:25.566Z,21.52
2022-12-19T01:56:55.794Z,21.25
2022-12-19T01:59:47.974Z,22.27
2022-12-19T02:02:28.018Z,21.48
2022-12-19T02:04:54.876Z,22.98
2022-12-19T02:07:25.007Z,21.38
2022-12-19T02:09:56.843Z,20.13
2022-12-19T02:12:35.298Z,21.02
2022-12-19T02:15:05.798Z,20.83
2022-12-19T02:17:56.687Z,20.83
2022-12-19T02:20:52.278Z,20.10
2022-12-19T02:23:42.647Z,20.40
2022-12-19T02:26:46.362Z,19.67
2022-12-19T02:29:48.818Z,20.13
2022-12-19T02:32:25.196Z,19.90
2022-12-19T02:35:09.773Z,22.42
2022-12-19T02:38:06.349Z,21.17
2022-12-19T02:40:45.043Z,19.98
2022-12-19T02:43:17.824Z,21.08
2022-12-19T02:45:46.428Z,21.50
2022-12-19T02:48:19.068Z,21.50
2022-12-19T02:53:16.863Z,22.77
2022-12-19T02:56:09.364Z,22.13
2022-12-19T02:58:50.938Z,20.63
2022-12-19T03:01:27.959Z,22.02
2022-12-19T03:04:07.259Z,22.98
2022-12-19T03:06:45.911Z,23.60
2022-12-19T03:09:22.852Z,23.92
2022-12-19T03:11:55.370Z,23.48
2022-12-19T03:16:53.332Z,22.88
2022-12-19T03:19:20.572Z,23.05
2022-12-19T03:21:49.259Z,22.38
2022-12-19T03:24:17.700Z,24.13
2022-12-19T03:26:53.313Z,25.23
2022-12-19T03:29:33.069Z,25.58
2022-12-19T03:32:03.268Z,23.90
2022-12-19T03:34:45.067Z,23.88
2022-12-19T03:37:16.604Z,23.80
2022-12-19T03:39:46.896Z,24.35
2022-12-19T03:42:40.023Z,24.15
2022-12-19T03:45:07.922Z,24.38
2022-12-19T03:47:50.979Z,24.95
2022-12-19T03:50:18.554Z,25.58
2022-12-19T03:52:56.343Z,27.55
2022-12-19T03:55:47.404Z,23.75
2022-12-19T03:58:20.744Z,27.25
2022-12-19T04:00:49.577Z,26.02
2022-12-19T04:03:17.862Z,25.25
2022-12-19T04:05:46.511Z,26.92
2022-12-19T04:08:14.534Z,26.60
2022-12-19T04:10:48.306Z,26.48
2022-12-19T04:13:19.891Z,25.80
2022-12-19T04:16:05.409Z,26.35
2022-12-19T04:18:33.643Z,25.20
2022-12-19T04:21:22.243Z,27.58
2022-12-19T04:23:55.070Z,27.83
2022-12-19T04:26:23.441Z,28.05
2022-12-19T04:28:58.687Z,26.33
2022-12-19T04:31:25.610Z,26.02
2022-12-19T04:33:52.431Z,26.05
2022-12-19T04:36:19.446Z,28.13
2022-12-19T04:38:46.208Z,25.65
2022-12-19T04:41:12.924Z,26.92
2022-12-19T04:43:39.827Z,26.98
2022-12-19T04:46:06.599Z,26.25
2022-12-19T04:48:35.847Z,27.38
2022-12-19T04:51:02.731Z,26.58
2022-12-19T04:53:31.394Z,24.27
2022-12-19T04:56:02.768Z,27.95
2022-12-19T04:58:29.546Z,26.05
2022-12-19T05:01:03.734Z,26.85
2022-12-19T05:03:30.821Z,25.80
2022-12-19T05:06:12.774Z,28.60
2022-12-19T05:08:41.783Z,28.60
2022-12-19T05:11:14.599Z,27.45
2022-12-19T05:13:45.942Z,25.95
2022-12-19T05:16:13.613Z,25.85
2022-12-19T05:18:40.518Z,26.95
2022-12-19T05:21:07.577Z,26.23
2022-12-19T05:23:34.790Z,27.13
2022-12-19T05:26:03.399Z,26.35
2022-12-19T05:28:31.938Z,28.25
2022-12-19T05:31:12.189Z,28.88
2022-12-19T05:33:40.660Z,27.13
2022-12-19T05:36:08.505Z,28.10
2022-12-19T05:38:36.195Z,28.95
2022-12-19T05:41:17.613Z,29.42
2022-12-19T05:43:45.810Z,28.20
2022-12-19T05:46:12.643Z,27.77
2022-12-19T05:48:39.503Z,27.50
2022-12-19T05:51:06.319Z,27.95
2022-12-19T05:53:35.928Z,28.50
2022-12-19T05:56:08.517Z,25.95
2022-12-19T05:58:36.606Z,27.27
2022-12-19T06:01:12.016Z,26.52
2022-12-19T06:03:38.786Z,22.88
2022-12-19T06:06:07.756Z,25.48
2022-12-19T06:08:35.269Z,26.73
2022-12-19T06:11:04.225Z,25.67
2022-12-19T06:13:32.039Z,27.52
2022-12-19T06:16:22.744Z,27.08
2022-12-19T06:18:49.776Z,26.30
2022-12-19T06:21:19.323Z,27.60
2022-12-19T06:23:46.796Z,25.40
2022-12-19T06:26:19.548Z,25.83
2022-12-19T06:28:48.082Z,26.48
2022-12-19T06:31:15.488Z,25.90
2022-12-19T06:33:42.631Z,26.73
2022-12-19T06:36:23.982Z,26.50
2022-12-19T06:38:51.269Z,25.25
2022-12-19T06:41:37.268Z,26.92
2022-12-19T06:44:06.852Z,26.10
2022-12-19T06:46:34.250Z,28.27
2022-12-19T06:49:02.197Z,27.42
2022-12-19T06:51:29.311Z,27.65
2022-12-19T06:53:56.076Z,25.60
2022-12-19T06:56:23.563Z,24.05
2022-12-19T06:58:50.862Z,26.40
2022-12-19T07:01:31.060Z,23.95
2022-12-19T07:03:58.599Z,23.65
2022-12-19T07:06:25.450Z,23.05
2022-12-19T07:08:53.360Z,23.73
2022-12-19T07:11:20.063Z,24.67
2022-12-19T07:13:46.923Z,23.65
2022-12-19T07:16:13.698Z,23.73
2022-12-19T07:18:41.032Z,23.48
2022-12-19T07:21:11.074Z,20.63
2022-12-19T07:23:38.406Z,21.40
2022-12-19T07:26:05.352Z,22.05
2022-12-19T07:28:34.214Z,23.02
2022-12-19T07:31:01.060Z,20.90
2022-12-19T07:33:27.755Z,21.58
2022-12-19T07:35:54.505Z,21.70
2022-12-19T07:38:21.233Z,21.20
2022-12-19T07:40:47.933Z,20.58
2022-12-19T07:43:14.657Z,21.02
2022-12-19T07:45:42.646Z,19.55
2022-12-19T07:48:10.136Z,20.67
2022-12-19T07:50:36.910Z,21.25
2022-12-19T07:53:03.652Z,19.33
2022-12-19T07:55:30.480Z,19.92
2022-12-19T07:57:57.321Z,20.98
2022-12-19T08:00:24.193Z,21.00
2022-12-19T08:02:51.078Z,19.67
2022-12-19T08:05:19.130Z,18.88
2022-12-19T08:07:45.873Z,18.92
2022-12-19T08:10:14.930Z,18.08
2022-12-19T08:12:42.168Z,19.83
2022-12-19T08:15:09.571Z,19.23
2022-12-19T08:17:41.541Z,18.75
2022-12-19T08:20:11.318Z,19.55
2022-12-19T08:22:38.035Z,20.63
2022-12-19T08:25:06.973Z,20.00
2022-12-19T08:27:34.687Z,19.25
2022-12-19T08:30:01.362Z,19.38
2022-12-19T08:32:29.529Z,18.70
2022-12-19T08:34:56.717Z,20.35
2022-12-19T08:37:23.481Z,19.42
2022-12-19T08:39:50.181Z,19.65
2022-12-19T08:42:16.845Z,18.92
2022-12-19T08:44:43.511Z,19.33
2022-12-19T08:47:10.199Z,19.58
2022-12-19T08:49:36.991Z,18.38
2022-12-19T08:52:03.806Z,19.90
2022-12-19T08:54:30.509Z,18.83
2022-12-19T08:56:57.759Z,20.98
2022-12-19T08:59:31.479Z,21.05
2022-12-19T09:02:00.412Z,20.33
2022-12-19T09:05:57.342Z,21.45
2022-12-19T09:07:16.068Z,21.92
2022-12-19T09:09:44.268Z,21.08
2022-12-19T09:12:12.777Z,18.98
2022-12-19T09:14:39.547Z,20.83
2022-12-19T09:17:06.485Z,20.40
2022-12-19T09:19:33.466Z,21.92
2022-12-19T09:22:00.312Z,18.05
2022-12-19T09:24:27.246Z,19.80
2022-12-19T09:26:53.934Z,18.33
2022-12-19T09:29:22.108Z,17.73
2022-12-19T09:31:55.768Z,18.38
2022-12-19T09:34:38.323Z,18.95
2022-12-19T09:37:08.105Z,19.48
2022-12-19T09:39:36.076Z,17.60
2022-12-19T09:42:15.295Z,18.55
2022-12-19T09:44:54.922Z,17.95
2022-12-19T09:47:29.021Z,16.13
2022-12-19T09:49:57.297Z,16.65
2022-12-19T09:52:47.187Z,15.80
2022-12-19T09:55:28.612Z,15.63
2022-12-19T09:58:12.111Z,15.38
2022-12-19T10:00:47.063Z,15.40
2022-12-19T10:03:29.832Z,15.30
2022-12-19T10:06:44.050Z,16.83
2022-12-19T10:10:37.566Z,14.77
2022-12-19T10:12:45.227Z,14.43
2022-12-19T10:15:47.255Z,15.85
2022-12-19T10:18:54.537Z,15.07
2022-12-19T10:25:09.077Z,14.77
2022-12-19T10:27:59.311Z,14.48
2022-12-19T10:30:32.027Z,14.50
2022-12-19T10:33:31.887Z,14.77
2022-12-19T10:36:02.093Z,15.27
2022-12-19T10:38:56.576Z,13.85
2022-12-19T10:41:30.309Z,15.15
2022-12-19T10:44:09.518Z,14.05
2022-12-19T10:46:43.092Z,15.05
2022-12-19T10:49:14.615Z,13.32
2022-12-19T10:51:42.339Z,13.57
2022-12-19T10:54:09.408Z,13.02
2022-12-19T10:56:37.919Z,13.43
2022-12-19T10:59:16.885Z,13.73
2022-12-19T11:01:44.805Z,14.57
2022-12-19T11:04:34.888Z,14.45
2022-12-19T11:07:07.134Z,12.30
2022-12-19T11:09:46.761Z,12.38
2022-12-19T11:17:37.128Z,12.88
2022-12-19T11:20:50.025Z,13.07
2022-12-19T11:25:50.431Z,14.57
2022-12-19T11:29:18.491Z,12.30
2022-12-19T11:29:30.353Z,13.82
2022-12-19T11:29:39.997Z,13.43
2022-12-19T11:32:43.637Z,14.00
2022-12-19T11:35:24.770Z,13.00
2022-12-19T11:37:58.494Z,12.52
2022-12-19T11:40:46.587Z,12.57
2022-12-19T11:46:17.670Z,11.98
2022-12-19T11:48:53.591Z,12.45
2022-12-19T11:51:40.323Z,12.98
2022-12-19T11:54:13.991Z,12.32
2022-12-19T11:56:41.694Z,11.95
2022-12-19T11:59:38.186Z,12.45
2022-12-19T12:02:30.323Z,12.50
2022-12-19T12:05:21.695Z,13.17
2022-12-19T12:09:24.564Z,12.17
2022-12-19T12:15:19.019Z,12.32
2022-12-19T12:26:42.540Z,11.20
2022-12-19T12:30:18.110Z,11.23
2022-12-19T12:31:25.830Z,10.75
2022-12-19T12:31:32.292Z,10.75
2022-12-19T12:31:57.403Z,11.27
2022-12-19T12:31:59.001Z,10.70
2022-12-19T12:35:56.480Z,10.75
2022-12-19T12:38:29.571Z,10.77
2022-12-19T12:41:15.982Z,9.48
2022-12-19T12:43:51.603Z,9.32
2022-12-19T12:46:26.225Z,9.73
2022-12-19T12:49:04.388Z,9.77
2022-12-19T12:51:33.295Z,9.45
2022-12-19T12:54:07.442Z,8.95
2022-12-19T12:56:36.219Z,9.48
2022-12-19T12:59:07.358Z,10.13
2022-12-19T13:01:40.148Z,9.98
2022-12-19T13:04:13.219Z,8.43
2022-12-19T13:06:50.656Z,10.52
2022-12-19T13:09:30.074Z,10.52
2022-12-19T13:12:18.457Z,10.20
2022-12-19T13:14:50.869Z,10.02
2022-12-19T13:17:33.180Z,9.07
2022-12-19T13:20:06.195Z,8.98
2022-12-19T13:22:32.790Z,9.07
2022-12-19T13:25:00.945Z,9.25
2022-12-19T13:27:41.211Z,9.60
2022-12-19T13:30:12.278Z,7.75
2022-12-19T13:32:39.133Z,7.93
2022-12-19T13:36:18.025Z,7.93
2022-12-19T13:39:48.640Z,8.02
2022-12-19T13:40:57.663Z,7.70
2022-12-19T13:43:45.912Z,8.17
2022-12-19T13:46:38.901Z,7.95
2022-12-19T13:52:10.980Z,7.20
2022-12-19T13:54:50.543Z,7.63
2022-12-19T13:57:23.080Z,8.05
2022-12-19T14:00:00.399Z,7.05
2022-12-19T14:02:44.181Z,7.03
2022-12-19T14:06:14.436Z,7.22
2022-12-19T14:08:20.605Z,7.75
2022-12-19T14:11:34.265Z,6.88
2022-12-19T14:14:10.263Z,7.35
2022-12-19T14:16:45.207Z,7.10
2022-12-19T14:19:22.736Z,7.38
2022-12-19T14:22:05.227Z,7.53
2022-12-19T14:24:36.878Z,7.07
2022-12-19T14:28:27.103Z,8.07
2022-12-19T14:30:27.401Z,7.28
2022-12-19T14:33:40.325Z,7.18
2022-12-19T14:36:10.559Z,7.43
2022-12-19T14:39:22.535Z,6.65
2022-12-19T14:41:46.411Z,7.88
2022-12-19T14:52:34.906Z,6.88
2022-12-19T14:53:34.017Z,7.13
2022-12-19T14:54:22.221Z,7.05
2022-12-19T14:54:40.046Z,7.60
2022-12-19T14:56:19.577Z,7.32
2022-12-19T14:58:53.361Z,7.22
2022-12-19T15:01:29.381Z,7.22
2022-12-19T15:04:47.855Z,7.55
2022-12-19T15:07:08.790Z,7.25
2022-12-19T15:11:03.269Z,7.60
2022-12-19T15:14:57.048Z,7.00
2022-12-19T15:16:05.742Z,6.95
2022-12-19T15:18:32.576Z,6.60
2022-12-19T15:21:04.855Z,7.05
2022-12-19T15:23:31.833Z,6.95
2022-12-19T15:26:07.934Z,6.80
2022-12-19T15:28:50.154Z,6.68
2022-12-19T15:31:32.233Z,7.27
2022-12-19T15:34:33.116Z,6.57
2022-12-19T15:36:46.439Z,6.88
2022-12-19T15:39:14.905Z,7.10
2022-12-19T15:41:42.861Z,7.72
2022-12-19T15:44:24.985Z,7.68
2022-12-19T15:46:52.231Z,6.90
2022-12-19T15:49:20.756Z,7.22
2022-12-19T15:51:48.904Z,6.25
2022-12-19T15:57:02.793Z,6.53
2022-12-19T15:59:37.391Z,6.38
2022-12-19T16:02:16.186Z,7.05
2022-12-19T16:04:43.828Z,6.47
2022-12-19T16:07:16.587Z,6.63
2022-12-19T16:12:17.861Z,6.72
2022-12-19T16:14:46.044Z,6.38
2022-12-19T16:17:19.497Z,6.97
2022-12-19T16:19:46.229Z,6.72
2022-12-19T16:22:24.635Z,6.80
2022-12-19T16:24:53.222Z,6.03
2022-12-19T16:27:28.168Z,6.30
2022-12-19T16:29:55.663Z,5.72
2022-12-19T16:32:24.260Z,6.38
2022-12-19T16:34:52.875Z,6.65
2022-12-19T16:37:19.610Z,6.85
2022-12-19T16:39:46.310Z,6.45
2022-12-19T16:42:17.216Z,6.68
2022-12-19T16:44:47.945Z,6.43
2022-12-19T16:47:17.307Z,6.22
2022-12-19T16:49:44.908Z,7.10
2022-12-19T16:52:12.226Z,6.82
2022-12-19T16:54:39.274Z,6.13
2022-12-19T16:57:07.245Z,6.38
2022-12-19T16:59:37.260Z,6.13
2022-12-19T17:02:32.286Z,5.57
2022-12-19T17:04:59.272Z,5.80
2022-12-19T17:07:28.734Z,6.80
2022-12-19T17:09:55.573Z,6.80
2022-12-19T17:12:22.885Z,6.45
2022-12-19T17:14:49.700Z,6.00
2022-12-19T17:17:16.860Z,6.25
2022-12-19T17:19:45.397Z,5.68
2022-12-19T17:22:18.234Z,6.28
2022-12-19T17:24:49.023Z,5.95
2022-12-19T17:27:17.428Z,5.88
2022-12-19T17:29:44.574Z,6.60
2022-12-19T17:32:23.200Z,5.90
2022-12-19T17:34:50.335Z,6.18
2022-12-19T17:37:17.432Z,6.93
2022-12-19T17:39:44.115Z,5.97
2022-12-19T17:42:22.937Z,5.20
2022-12-19T17:44:50.280Z,6.43
2022-12-19T17:47:19.635Z,5.72
2022-12-19T17:49:47.904Z,5.78
2022-12-19T17:52:17.394Z,5.75
2022-12-19T17:54:44.109Z,6.20
2022-12-19T17:57:15.205Z,5.70
2022-12-19T17:59:42.365Z,6.72
2022-12-19T18:02:24.857Z,5.85
2022-12-19T18:04:52.690Z,7.88
2022-12-19T18:07:19.460Z,6.60
2022-12-19T18:09:48.437Z,6.03
2022-12-19T18:12:15.212Z,5.63
2022-12-19T18:14:41.909Z,5.90
2022-12-19T18:17:12.446Z,5.68
2022-12-19T18:19:39.506Z,6.53
2022-12-19T18:22:13.292Z,5.50
2022-12-19T18:24:40.763Z,5.47
2022-12-19T18:27:07.547Z,6.00
2022-12-19T18:29:34.931Z,5.85
2022-12-19T18:32:01.762Z,5.40
2022-12-19T18:34:32.010Z,5.88
2022-12-19T18:36:58.659Z,5.78
2022-12-19T18:39:27.870Z,5.40
2022-12-19T18:41:55.020Z,5.45
2022-12-19T18:44:23.024Z,6.07
2022-12-19T18:46:51.640Z,5.40
2022-12-19T18:49:19.003Z,5.68
2022-12-19T18:51:45.745Z,5.60
2022-12-19T18:54:15.282Z,5.18
2022-12-19T18:56:41.975Z,5.50
2022-12-19T18:59:08.993Z,4.80
2022-12-19T19:01:40.569Z,4.75
2022-12-19T19:04:07.504Z,5.10
2022-12-19T19:06:37.770Z,5.65
2022-12-19T19:09:14.617Z,4.90
2022-12-19T19:11:59.775Z,5.72
2022-12-19T19:14:26.483Z,5.07
2022-12-19T19:16:53.703Z,5.07
2022-12-19T19:19:20.507Z,4.90
2022-12-19T19:21:47.216Z,4.70
2022-12-19T19:24:17.271Z,4.22
2022-12-19T19:26:44.485Z,4.72
2022-12-19T19:29:13.374Z,4.93
2022-12-19T19:31:44.049Z,4.50
2022-12-19T19:34:34.097Z,4.55
2022-12-19T19:37:03.837Z,3.83
2022-12-19T19:39:33.026Z,4.47
2022-12-19T19:42:01.052Z,4.32
2022-12-19T19:44:28.267Z,4.38
2022-12-19T19:46:54.963Z,4.20
2022-12-19T19:49:22.629Z,4.18
2022-12-19T19:51:49.455Z,4.35
2022-12-19T19:54:16.159Z,4.57
2022-12-19T19:56:42.918Z,3.97
2022-12-19T19:59:09.665Z,4.22
2022-12-19T20:01:36.591Z,4.03
2022-12-19T20:04:03.998Z,4.32
2022-12-19T20:06:30.990Z,4.78
2022-12-19T20:08:57.695Z,3.92
2022-12-19T20:11:24.417Z,4.40
2022-12-19T20:13:51.118Z,4.50
2022-12-19T20:16:18.916Z,4.40
2022-12-19T20:18:50.852Z,4.10
2022-12-19T20:21:19.739Z,4.07
2022-12-19T20:23:46.699Z,4.05
2022-12-19T20:26:15.477Z,4.35
2022-12-19T20:28:48.232Z,4.38
2022-12-19T20:31:20.055Z,4.13
2022-12-19T20:33:48.237Z,3.95
2022-12-19T20:36:15.887Z,4.28
2022-12-19T20:38:42.835Z,4.60
2022-12-19T20:41:10.317Z,3.92
2022-12-19T20:43:38.486Z,4.47
2022-12-19T20:46:07.866Z,3.80
2022-12-19T20:48:34.862Z,4.63
2022-12-19T20:51:04.580Z,4.28
2022-12-19T20:53:33.512Z,4.57
2022-12-19T20:56:04.751Z,4.60
2022-12-19T20:58:33.586Z,4.10
2022-12-19T21:01:06.323Z,4.85
2022-12-19T21:03:33.689Z,4.38
2022-12-19T21:06:00.908Z,4.32
2022-12-19T21:08:28.058Z,3.85
2022-12-19T21:10:55.114Z,4.68
2022-12-19T21:13:24.683Z,4.38
2022-12-19T21:15:53.131Z,4.00
2022-12-19T21:18:20.127Z,4.68
2022-12-19T21:20:47.277Z,4.10
2022-12-19T21:23:14.436Z,3.97
2022-12-19T21:25:41.178Z,4.22
2022-12-19T21:28:08.616Z,4.60
2022-12-19T21:30:35.627Z,4.22
2022-12-19T21:33:02.678Z,4.20
2022-12-19T21:35:37.870Z,4.53
2022-12-19T21:38:04.648Z,4.38
2022-12-19T21:40:31.390Z,4.53
2022-12-19T21:42:58.111Z,3.92
2022-12-19T21:45:24.822Z,4.45
2022-12-19T21:47:51.553Z,4.18
2022-12-19T21:50:18.388Z,4.18
2022-12-19T21:52:45.103Z,4.47
2022-12-19T21:55:11.843Z,4.30
2022-12-19T21:57:42.467Z,4.20
2022-12-19T22:00:11.601Z,4.20
2022-12-19T22:02:39.532Z,3.75
2022-12-19T22:05:08.219Z,4.57
2022-12-19T22:07:34.966Z,3.47
2022-12-19T22:10:01.748Z,4.35
2022-12-19T22:12:28.455Z,3.78
2022-12-19T22:14:55.225Z,4.60
2022-12-19T22:17:21.909Z,3.70
2022-12-19T22:19:48.552Z,3.90
2022-12-19T22:22:15.224Z,3.75
2022-12-19T22:24:41.996Z,4.05
2022-12-19T22:27:08.985Z,3.47
2022-12-19T22:29:36.491Z,4.00
2022-12-19T22:32:04.339Z,4.55
2022-12-19T22:34:31.185Z,4.35
2022-12-19T22:36:58.298Z,3.78
2022-12-19T22:39:25.565Z,3.67
2022-12-19T22:41:52.363Z,3.38
2022-12-19T22:44:23.676Z,3.58
2022-12-19T22:46:51.566Z,3.67
2022-12-19T22:49:18.366Z,3.65
2022-12-19T22:51:45.257Z,3.35
2022-12-19T22:54:12.546Z,3.65
2022-12-19T22:56:40.392Z,3.53
2022-12-19T22:59:08.445Z,3.40
2022-12-19T23:01:40.964Z,3.10
2022-12-19T23:04:10.554Z,3.97
2022-12-19T23:06:38.335Z,3.20
2022-12-19T23:09:09.581Z,3.35
2022-12-19T23:11:38.674Z,3.88
2022-12-19T23:14:07.341Z,3.58
2022-12-19T23:16:34.438Z,3.25
2022-12-19T23:19:01.272Z,3.30
2022-12-19T23:21:27.977Z,3.63
2022-12-19T23:23:55.951Z,4.05
2022-12-19T23:26:26.471Z,3.92
2022-12-19T23:28:58.738Z,3.53
2022-12-19T23:31:27.078Z,3.28
2022-12-19T23:33:54.972Z,3.58
2022-12-19T23:36:45.077Z,3.20
2022-12-19T23:39:11.095Z,3.63
2022-12-19T23:41:37.916Z,3.10
2022-12-19T23:44:04.912Z,2.88
2022-12-19T23:46:31.752Z,3.17
2022-12-19T23:48:58.500Z,3.25
2022-12-19T23:51:27.027Z,3.20
2022-12-19T23:53:55.086Z,3.42
2022-12-19T23:56:27.916Z,3.33
2022-12-19T23:58:55.294Z,3.13
